Terminal Aerodrome Forecast
Issued by NWS Paducah, KY

Home | Current Version | Previous Version | Text Only | Print | Product List | Glossary On
Versions: 1 2 3 4 5 6 7 8 9 10 11 12 13 14 15 16 17 18 19
000
FTUS43 KPAH 191121
TAFEVV
TAF
KEVV 191121Z 1912/2012 25003KT P6SM SCT060 BKN120
      TEMPO 1912/1914 28015G35KT 2SM TSRA BR BKN030CB
     FM191400 27006KT P6SM FEW030
     FM191700 30005KT P6SM SCT040
     FM200000 VRB02KT P6SM SKC=

USA.gov is the U.S. government's official web portal to all federal, state and local government web resources and services.